Meteorología y climatología de Navarra
Datos de la estación - Meteo Navarra

Estación de Carrascal GN

Altitud 568 m.


Datos desde el 30/06/2020 hasta el 01/07/2020 en horario solar
Los datos son PROVISIONALES

Anterior Página 1 de 1 Siguiente Descargar: Formato para Excel 2000 o superior   Formato csv   Formato para OpenOffice Calc
Fecha Temperatura Humedad relativa Radiación global Insolación Precipitación Vel. viento 10 m Vel. viento 10 m Dir. viento 10 m
ºC % W/m² s l/m² m/s km/h º
30/06/2020 0:00 14.2 90 0.0 0 0.0 9.6 34.4 41
30/06/2020 0:10 14.3 90 0.0 0 0.0 9.4 33.9 43
30/06/2020 0:20 14.2 89 0.0 0 0.0 9.2 33.0 39
30/06/2020 0:30 14.2 90 0.0 0 0.0 9.0 32.3 41
30/06/2020 0:40 14.0 90 0.0 0 0.0 8.9 32.1 42
30/06/2020 0:50 14.0 90 0.0 0 0.0 10.1 36.4 45
30/06/2020 1:00 13.9 90 0.0 0 0.0 9.1 32.6 41
30/06/2020 1:10 13.9 91 0.0 0 0.0 9.7 35.0 41
30/06/2020 1:20 13.8 91 0.0 0 0.0 10.1 36.2 38
30/06/2020 1:30 13.7 91 0.0 0 0.0 9.8 35.2 41
30/06/2020 1:40 13.6 92 0.0 0 0.0 9.5 34.1 40
30/06/2020 1:50 13.5 93 0.0 0 0.0 9.3 33.3 40
30/06/2020 2:00 13.4 93 0.0 0 0.0 9.3 33.4 37
30/06/2020 2:10 13.3 93 0.0 0 0.0 9.0 32.4 37
30/06/2020 2:20 13.4 93 0.0 0 0.0 9.2 33.2 38
30/06/2020 2:30 13.5 92 0.0 0 0.0 8.4 30.3 34
30/06/2020 2:40 13.5 91 0.0 0 0.0 8.6 30.8 34
30/06/2020 2:50 13.5 91 0.0 0 0.0 8.4 30.1 33
30/06/2020 3:00 13.5 91 0.0 0 0.0 8.7 31.4 33
30/06/2020 3:10 13.7 90 0.0 0 0.0 9.2 33.1 37
30/06/2020 3:20 13.7 89 0.0 0 0.0 9.1 32.6 38
30/06/2020 3:30 13.6 90 0.0 0 0.0 8.1 29.2 37
30/06/2020 3:40 13.3 91 0.0 0 0.0 8.1 29.3 35
30/06/2020 3:50 13.3 91 0.0 0 0.0 7.7 27.9 34
30/06/2020 4:00 13.3 92 0.0 0 0.0 7.7 27.6 38
30/06/2020 4:10 12.9 93 0.0 0 0.0 7.4 26.7 41
30/06/2020 4:20 12.5 94 0.0 0 0.0 7.2 26.1 46
30/06/2020 4:30 12.4 96 0.0 0 0.0 7.2 26.0 42
30/06/2020 4:40 12.8 95 0.0 0 0.0 7.7 27.6 40
30/06/2020 4:50 12.6 95 0.7 0 0.0 8.2 29.6 41
30/06/2020 5:00 12.8 94 22.4 0 0.0 7.9 28.3 47
30/06/2020 5:10 13.2 91 27.1 0 0.0 7.3 26.2 51
30/06/2020 5:20 13.6 89 32.2 0 0.0 7.6 27.2 46
30/06/2020 5:30 13.9 88 64.0 204 0.0 8.0 28.9 44
30/06/2020 5:40 14.3 87 114.3 566 0.0 7.5 27.0 40
30/06/2020 5:50 14.5 86 126.4 418 0.0 7.4 26.5 43
30/06/2020 6:00 14.4 86 128.1 268 0.0 7.2 26.0 41
30/06/2020 6:10 14.4 86 71.9 0 0.0 7.5 27.1 42
30/06/2020 6:20 14.4 86 76.9 0 0.0 7.5 27.0 45
30/06/2020 6:30 14.4 86 76.2 0 0.0 7.3 26.4 44
30/06/2020 6:40 14.6 85 89.7 0 0.0 7.2 26.1 46
30/06/2020 6:50 14.7 84 85.0 0 0.0 7.1 25.4 44
30/06/2020 7:00 14.9 84 79.4 0 0.0 7.1 25.6 47
30/06/2020 7:10 15.0 83 95.9 0 0.0 7.2 26.1 45
30/06/2020 7:20 15.1 83 130.6 0 0.0 7.3 26.2 45
30/06/2020 7:30 15.3 81 148.7 0 0.0 6.9 24.7 43
30/06/2020 7:40 15.6 80 146.2 0 0.0 6.6 23.6 41
30/06/2020 7:50 15.9 79 177.4 0 0.0 6.3 22.6 41
30/06/2020 8:00 16.2 77 201.2 0 0.0 6.6 23.7 43
30/06/2020 8:10 16.6 75 249.1 38 0.0 6.3 22.6 42
30/06/2020 8:20 17.0 72 319.6 96 0.0 6.6 23.7 45
30/06/2020 8:30 17.4 69 344.6 104 0.0 6.2 22.4 47
30/06/2020 8:40 17.8 66 398.8 386 0.0 6.1 21.9 43
30/06/2020 8:50 18.4 64 470.4 554 0.0 6.0 21.5 43
30/06/2020 9:00 19.4 61 696.1 600 0.0 5.3 19.1 42
30/06/2020 9:10 20.1 57 782.9 600 0.0 5.6 20.1 47
30/06/2020 9:20 20.4 57 779.6 600 0.0 5.3 19.2 46
30/06/2020 9:30 20.8 56 772.3 600 0.0 5.7 20.4 44
30/06/2020 9:40 21.1 55 796.0 600 0.0 5.0 18.0 47
30/06/2020 9:50 21.7 55 812.0 600 0.0 4.5 16.3 49
30/06/2020 10:00 22.3 54 838.0 600 0.0 4.3 15.5 55
30/06/2020 10:10 23.0 53 847.0 600 0.0 3.8 13.8 48
30/06/2020 10:20 23.4 52 861.0 600 0.0 3.8 13.8 58
30/06/2020 10:30 23.8 53 873.0 600 0.0 3.7 13.2 48
30/06/2020 10:40 23.8 53 889.0 600 0.0 3.4 12.1 63
30/06/2020 10:50 25.1 52 902.0 600 0.0 3.4 12.2 47
30/06/2020 11:00 25.2 51 911.0 600 0.0 3.1 11.2 56
30/06/2020 11:10 25.4 52 922.0 600 0.0 2.2 8.1 65
30/06/2020 11:20 26.2 52 933.0 600 0.0 2.4 8.7 69
30/06/2020 11:30 27.1 50 940.0 600 0.0 1.6 5.8 88
30/06/2020 11:40 27.1 50 946.0 600 0.0 1.1 3.9 224
30/06/2020 11:50 27.7 48 950.0 600 0.0 2.3 8.3 105
30/06/2020 12:00 28.3 49 961.0 600 0.0 2.3 8.2 178
30/06/2020 12:10 28.8 47 970.0 600 0.0 1.9 6.8 186
30/06/2020 12:20 30.0 45 963.0 600 0.0 3.2 11.7 175
30/06/2020 12:30 30.1 44 957.0 600 0.0 2.2 7.8 162
30/06/2020 12:40 30.9 42 956.0 600 0.0 3.2 11.5 167
30/06/2020 12:50 30.9 42 952.0 600 0.0 3.9 14.1 165
30/06/2020 13:00 31.3 41 943.0 600 0.0 2.9 10.3 169
30/06/2020 13:10 30.9 42 934.0 600 0.0 2.3 8.4 156
30/06/2020 13:20 31.5 42 931.0 600 0.0 2.8 9.9 169
30/06/2020 13:30 31.5 41 919.0 600 0.0 2.5 9.1 144
30/06/2020 13:40 31.2 41 899.0 600 0.0 3.7 13.2 163
30/06/2020 13:50 31.8 38 891.0 600 0.0 2.7 9.6 147
30/06/2020 14:00 31.5 38 880.0 600 0.0 3.0 10.6 172
30/06/2020 14:10 32.2 36 865.0 600 0.0 2.5 9.0 194
30/06/2020 14:20 32.1 36 851.0 600 0.0 3.4 12.1 181
30/06/2020 14:30 32.8 34 831.0 600 0.0 2.7 9.8 190
30/06/2020 14:40 32.4 34 808.0 600 0.0 3.4 12.3 186
30/06/2020 14:50 32.6 33 791.9 600 0.0 3.0 10.7 200
30/06/2020 15:00 32.6 34 775.4 600 0.0 2.7 9.7 191
30/06/2020 15:10 33.2 32 761.2 600 0.0 1.4 5.1 237
30/06/2020 15:20 33.5 32 719.9 600 0.0 3.1 11.3 183
30/06/2020 15:30 31.9 35 735.4 600 0.0 2.7 9.8 124
30/06/2020 15:40 33.5 33 723.8 600 0.0 3.1 11.0 186
30/06/2020 15:50 33.0 33 713.2 600 0.0 2.9 10.5 125
30/06/2020 16:00 31.0 37 622.8 538 0.0 3.0 10.7 83
30/06/2020 16:10 31.3 37 499.8 574 0.0 3.4 12.1 117
30/06/2020 16:20 31.5 36 636.7 600 0.0 2.2 8.0 109
30/06/2020 16:30 31.2 37 446.1 350 0.0 2.0 7.2 104
30/06/2020 16:40 30.8 38 236.4 0 0.0 2.1 7.5 145
30/06/2020 16:50 30.9 38 233.7 0 0.0 2.6 9.4 156
30/06/2020 17:00 30.8 39 197.2 0 0.0 3.8 13.8 167
30/06/2020 17:10 30.0 41 144.0 0 0.0 5.7 20.6 176
30/06/2020 17:20 29.3 42 130.9 0 0.0 5.9 21.2 178
30/06/2020 17:30 28.9 43 96.9 0 0.0 5.4 19.4 181
30/06/2020 17:40 28.3 44 64.1 0 0.0 5.3 18.9 196
30/06/2020 17:50 27.6 45 71.3 0 0.0 4.1 14.9 178
30/06/2020 18:00 27.5 45 82.3 0 0.0 3.0 10.9 193
30/06/2020 18:10 27.2 46 61.9 0 0.0 1.4 5.2 108
30/06/2020 18:20 27.0 46 52.1 0 0.0 2.2 7.8 280
30/06/2020 18:30 26.7 47 42.6 0 0.0 3.0 10.7 231
30/06/2020 18:40 26.4 48 34.9 0 0.0 1.4 4.9 253
30/06/2020 18:50 26.0 50 30.6 0 0.0 1.7 6.1 346
30/06/2020 19:00 25.8 50 28.2 0 0.0 1.8 6.5 300
30/06/2020 19:10 25.6 51 31.5 0 0.0 3.2 11.6 202
30/06/2020 19:20 25.6 51 28.8 0 0.0 4.3 15.3 190
30/06/2020 19:30 25.2 52 34.1 422 0.0 3.2 11.6 142
30/06/2020 19:40 25.2 50 32.8 432 0.0 2.3 8.2 73
30/06/2020 19:50 24.7 54 10.7 0 0.0 4.1 14.6 26
30/06/2020 20:00 24.2 61 0.1 0 0.0 5.3 19.2 28
30/06/2020 20:10 23.7 70 0.0 0 0.0 6.0 21.6 53
30/06/2020 20:20 23.4 73 0.0 0 0.0 6.5 23.3 38
30/06/2020 20:30 22.9 75 0.0 0 0.0 5.2 18.7 34
30/06/2020 20:40 22.8 77 0.0 0 0.0 5.2 18.7 29
30/06/2020 20:50 22.5 77 0.0 0 0.0 5.4 19.3 28
30/06/2020 21:00 22.4 78 0.0 0 0.0 5.1 18.2 34
30/06/2020 21:10 22.5 78 0.0 0 0.0 3.2 11.6 59
30/06/2020 21:20 22.3 79 0.0 0 0.0 1.5 5.4 67
30/06/2020 21:30 22.4 79 0.0 0 0.0 0.8 2.8 93
30/06/2020 21:40 22.1 79 0.0 0 0.0 2.1 7.7 193
30/06/2020 21:50 21.9 73 0.0 0 0.0 1.7 6.2 164
30/06/2020 22:00 22.4 64 0.0 0 0.0 1.6 5.6 191
30/06/2020 22:10 22.4 67 0.0 0 0.0 1.1 4.0 115
30/06/2020 22:20 21.6 74 0.0 0 0.0 3.4 12.1 50
30/06/2020 22:30 20.7 83 0.0 0 0.0 5.0 18.0 31
30/06/2020 22:40 20.9 83 0.0 0 0.0 4.9 17.7 34
30/06/2020 22:50 20.7 85 0.0 0 0.0 4.0 14.3 31
30/06/2020 23:00 20.6 84 0.0 0 0.0 4.5 16.0 37
30/06/2020 23:10 20.6 84 0.0 0 0.0 3.6 13.1 44
30/06/2020 23:20 20.5 84 0.0 0 0.0 4.2 15.0 41
30/06/2020 23:30 20.1 85 0.0 0 0.0 3.9 13.9 42
30/06/2020 23:40 20.3 85 0.0 0 0.0 3.7 13.2 38
30/06/2020 23:50 20.1 86 0.0 0 0.0 3.9 14.1 40
Anterior Página 1 de 1 Siguiente

NOTA: Tipo de datos según el color:
   - Valores diarios o 10 minutos correctos
   - Valores diarios calculados a partir de un número de datos 10 minutos menor que 144 y mayor que 120, o de un número de datos semihorarios menor que 48 y mayor que 40 (caso de las estaciones de INTIA y del Ministerio)
   - Valores diez minutos estimados


Contacto        Enlaces        Aviso legal